aviador You're here:

OIAH Decoded Metar

GACHSARAN in IRAN
Report Time2018-06-21 21:00:00
UTC Time2018-06-21 21:50:54
Flight Rules vfr VFR
WindCalm
Visibility9999 m
Phenomena:N/A
Clouds:N/A
Expected CloudBase > 12,400 ft AGL from Temp-Dew spread
CeilingNone
Temp30°C (ISA +20)
Dew Point-1°C (13% RH)
Heat Index28.1°C
AAT27.8°C
QNH1004 hPa
Density Alt5,059 ft
Elevation2,421 ft
Report Wrong Elevation
Raw Report
METAR OIAH 212100Z 00000KT CAVOK 30/M01 Q1004=

Extra information for OIAH:More info

Metar Taf Metar & Taf Last 4 Metars F.Rules Stats Wind Profile Meteogram Temp Stats Airport Information Weather charts Add Link Nearby VenuesMetar ALERT Operation Metar Decoded Social comments